Time,TemperatureF,DewpointF,PressureIn,WindDirection,WindDirectionDegrees,WindSpeedMPH,WindSpeedGustMPH,Humidity,HourlyPrecipIn,Conditions,Clouds,dailyrainin,SoftwareType,DateUTC
2013-02-28 00:00:00,42.1,32.3,29.63,WNW,292,0.0,0.0,68,0.00,,,0.02,Wunderground v.1.15,2013-02-28 05:00:00,
2013-02-28 00:01:00,42.1,32.7,29.63,WNW,292,0.0,0.0,69,0.00,,,0.00,Wunderground v.1.15,2013-02-28 05:01:00,
2013-02-28 00:06:00,41.9,32.5,29.63,WNW,292,0.0,0.0,69,0.00,,,0.00,Wunderground v.1.15,2013-02-28 05:06:00,
2013-02-28 00:11:00,41.8,32.4,29.62,WNW,292,0.0,0.0,69,0.00,,,0.00,Wunderground v.1.15,2013-02-28 05:11:00,
2013-02-28 00:17:00,41.6,31.8,29.62,WNW,292,0.0,0.0,68,0.00,,,0.00,Wunderground v.1.15,2013-02-28 05:17:00,
2013-02-28 00:22:00,41.5,32.1,29.62,WNW,292,0.0,0.0,69,0.00,,,0.00,Wunderground v.1.15,2013-02-28 05:22:00,
2013-02-28 00:27:00,41.5,32.1,29.62,WNW,292,0.0,0.0,69,0.00,,,0.00,Wunderground v.1.15,2013-02-28 05:27:00,
2013-02-28 00:30:00,40.2,33.2,29.62,WNW,292,0.0,3.0,76,0.00,,---,0.00,VWS V14.01,2013-02-28 05:30:00,
2013-02-28 00:32:00,41.3,32.2,29.62,WNW,292,0.0,0.0,70,0.00,,,0.00,Wunderground v.1.15,2013-02-28 05:32:00,
2013-02-28 00:37:00,41.2,32.5,29.62,WNW,292,0.0,1.0,71,0.00,,,0.00,Wunderground v.1.15,2013-02-28 05:37:00,
2013-02-28 00:42:00,41.2,32.9,29.62,WNW,292,0.0,0.0,72,0.00,,,0.00,Wunderground v.1.15,2013-02-28 05:42:00,
2013-02-28 00:47:00,41.1,32.8,29.62,WNW,292,0.0,1.0,72,0.00,,,0.00,Wunderground v.1.15,2013-02-28 05:47:00,
2013-02-28 00:52:00,40.9,32.9,29.62,WNW,292,0.0,0.0,73,0.00,,,0.00,Wunderground v.1.15,2013-02-28 05:52:00,
2013-02-28 00:57:00,40.8,32.5,29.62,WNW,292,0.0,0.0,72,0.00,,,0.00,Wunderground v.1.15,2013-02-28 05:57:00,
2013-02-28 01:00:00,41.6,31.1,29.62,WNW,292,2.0,11.0,66,0.00,,---,0.00,VWS V14.01,2013-02-28 06:00:00,
2013-02-28 01:02:00,40.6,32.6,29.62,WNW,292,0.0,0.0,73,0.00,,,0.00,Wunderground v.1.15,2013-02-28 06:02:00,
2013-02-28 01:08:00,40.6,33.3,29.62,WNW,292,0.0,1.0,75,0.00,,,0.00,Wunderground v.1.15,2013-02-28 06:08:00,
2013-02-28 01:13:00,40.5,32.9,29.62,NE,53,0.0,1.0,74,0.00,,,0.00,Wunderground v.1.15,2013-02-28 06:13:00,
2013-02-28 01:18:00,40.3,32.7,29.62,NE,53,0.0,1.0,74,0.00,,,0.00,Wunderground v.1.15,2013-02-28 06:18:00,
2013-02-28 01:23:00,40.3,33.0,29.62,NE,53,0.0,0.0,75,0.00,,,0.00,Wunderground v.1.15,2013-02-28 06:23:00,
2013-02-28 01:28:00,40.2,32.9,29.63,NE,53,0.0,0.0,75,0.00,,,0.00,Wunderground v.1.15,2013-02-28 06:28:00,
2013-02-28 01:30:00,41.5,31.4,29.62,NW,315,2.0,10.0,67,0.00,,---,0.00,VWS V14.01,2013-02-28 06:30:00,
2013-02-28 01:33:00,40.2,33.2,29.63,NE,53,2.0,2.0,76,0.00,,,0.00,Wunderground v.1.15,2013-02-28 06:33:00,
2013-02-28 01:38:00,40.1,33.1,29.63,NE,51,0.0,2.0,76,0.00,,,0.00,Wunderground v.1.15,2013-02-28 06:38:00,
2013-02-28 01:43:00,40.5,31.5,29.62,West,262,2.0,6.0,70,0.00,,,0.00,Wunderground v.1.15,2013-02-28 06:43:00,
2013-02-28 01:48:00,40.9,31.1,29.63,WSW,257,1.0,6.0,68,0.00,,,0.00,Wunderground v.1.15,2013-02-28 06:48:00,
2013-02-28 01:53:00,41.2,31.4,29.63,WNW,296,3.0,3.0,68,0.00,,,0.00,Wunderground v.1.15,2013-02-28 06:53:00,
2013-02-28 01:59:00,41.5,31.4,29.62,West,270,4.0,4.0,67,0.00,,,0.00,Wunderground v.1.15,2013-02-28 06:59:00,
2013-02-28 02:00:00,40.6,29.0,29.62,NW,315,2.0,7.0,63,0.00,,---,0.00,VWS V14.01,2013-02-28 07:00:00,
2013-02-28 02:04:00,41.8,30.9,29.62,WNW,295,3.0,10.0,65,0.00,,,0.00,Wunderground v.1.15,2013-02-28 07:04:00,
2013-02-28 02:09:00,41.9,31.0,29.62,WNW,300,1.0,10.0,65,0.00,,,0.00,Wunderground v.1.15,2013-02-28 07:09:00,
2013-02-28 02:14:00,41.9,30.2,29.62,West,271,1.0,7.0,63,0.00,,,0.00,Wunderground v.1.15,2013-02-28 07:14:00,
2013-02-28 02:19:00,41.9,30.6,29.62,NW,309,2.0,7.0,64,0.00,,,0.00,Wunderground v.1.15,2013-02-28 07:19:00,
2013-02-28 02:24:00,41.8,30.9,29.63,NW,308,1.0,3.0,65,0.00,,,0.00,Wunderground v.1.15,2013-02-28 07:24:00,
2013-02-28 02:29:00,41.5,31.4,29.63,NW,308,1.0,3.0,67,0.00,,,0.00,Wunderground v.1.15,2013-02-28 07:29:00,
2013-02-28 02:30:00,39.5,28.7,29.62,NW,315,3.0,7.0,65,0.00,,---,0.00,VWS V14.01,2013-02-28 07:30:00,
2013-02-28 02:34:00,41.3,31.5,29.63,NW,308,1.0,2.0,68,0.00,,,0.00,Wunderground v.1.15,2013-02-28 07:34:00,
2013-02-28 02:39:00,41.1,31.7,29.63,WNW,301,2.0,3.0,69,0.00,,,0.00,Wunderground v.1.15,2013-02-28 07:39:00,
2013-02-28 02:44:00,40.9,31.5,29.63,NW,306,2.0,5.0,69,0.00,,,0.00,Wunderground v.1.15,2013-02-28 07:44:00,
2013-02-28 02:49:00,40.8,31.1,29.63,NW,324,3.0,7.0,68,0.00,,,0.00,Wunderground v.1.15,2013-02-28 07:49:00,
2013-02-28 02:54:00,40.8,30.7,29.62,NW,321,1.0,7.0,67,0.00,,,0.00,Wunderground v.1.15,2013-02-28 07:54:00,
2013-02-28 02:59:00,40.6,29.4,29.62,NNW,346,2.0,7.0,64,0.00,,,0.00,Wunderground v.1.15,2013-02-28 07:59:00,
2013-02-28 03:00:00,38.3,27.6,29.63,NW,315,2.0,12.0,65,0.00,,---,0.00,VWS V14.01,2013-02-28 08:00:00,
2013-02-28 03:04:00,40.5,28.9,29.62,NNW,327,3.0,7.0,63,0.00,,,0.00,Wunderground v.1.15,2013-02-28 08:04:00,
2013-02-28 03:09:00,40.3,29.1,29.62,West,269,2.0,7.0,64,0.00,,,0.00,Wunderground v.1.15,2013-02-28 08:09:00,
2013-02-28 03:14:00,40.1,28.9,29.62,NW,324,2.0,4.0,64,0.00,,,0.00,Wunderground v.1.15,2013-02-28 08:14:00,
2013-02-28 03:19:00,39.9,28.7,29.63,NW,306,3.0,4.0,64,0.00,,,0.00,Wunderground v.1.15,2013-02-28 08:19:00,
2013-02-28 03:25:00,39.6,28.8,29.63,WNW,300,4.0,7.0,65,0.00,,,0.00,Wunderground v.1.15,2013-02-28 08:25:00,
2013-02-28 03:30:00,39.5,28.7,29.62,NW,305,2.0,7.0,65,0.00,,,0.00,Wunderground v.1.15,2013-02-28 08:30:00,
2013-02-28 03:35:00,39.3,28.1,29.62,NW,306,2.0,4.0,64,0.00,,,0.00,Wunderground v.1.15,2013-02-28 08:35:00,
2013-02-28 03:40:00,39.1,28.3,29.63,WNW,287,3.0,3.0,65,0.00,,,0.00,Wunderground v.1.15,2013-02-28 08:40:00,
2013-02-28 03:45:00,38.8,28.0,29.63,West,275,2.0,4.0,65,0.00,,,0.00,Wunderground v.1.15,2013-02-28 08:45:00,
2013-02-28 03:50:00,38.6,28.2,29.62,NW,316,2.0,3.0,66,0.00,,,0.00,Wunderground v.1.15,2013-02-28 08:50:00,
2013-02-28 03:55:00,38.5,27.7,29.63,WNW,292,1.0,12.0,65,0.00,,,0.00,Wunderground v.1.15,2013-02-28 08:55:00,
2013-02-28 04:00:00,38.3,27.6,29.63,WNW,296,1.0,3.0,65,0.00,,,0.00,Wunderground v.1.15,2013-02-28 09:00:00,
2013-02-28 04:05:00,38.3,27.6,29.63,West,272,7.0,7.0,65,0.00,,,0.00,Wunderground v.1.15,2013-02-28 09:05:00,
2013-02-28 04:10:00,38.2,27.1,29.63,WNW,302,2.0,3.0,64,0.00,,,0.00,Wunderground v.1.15,2013-02-28 09:10:00,
2013-02-28 04:15:00,38.2,27.1,29.64,WNW,290,3.0,9.0,64,0.00,,,0.00,Wunderground v.1.15,2013-02-28 09:15:00,
2013-02-28 04:20:00,38.2,27.1,29.64,NW,311,4.0,4.0,64,0.00,,,0.00,Wunderground v.1.15,2013-02-28 09:20:00,
2013-02-28 04:25:00,38.2,26.7,29.64,WSW,252,3.0,7.0,63,0.00,,,0.00,Wunderground v.1.15,2013-02-28 09:25:00,
2013-02-28 04:30:00,38.0,27.3,29.64,West,279,3.0,4.0,65,0.00,,,0.00,Wunderground v.1.15,2013-02-28 09:30:00,
2013-02-28 04:35:00,37.8,27.1,29.64,WSW,244,5.0,6.0,65,0.00,,,0.00,Wunderground v.1.15,2013-02-28 09:35:00,
2013-02-28 04:40:00,37.6,26.9,29.64,WNW,294,3.0,3.0,65,0.00,,,0.00,Wunderground v.1.15,2013-02-28 09:40:00,
2013-02-28 04:45:00,37.6,26.9,29.64,WNW,286,3.0,5.0,65,0.00,,,0.00,Wunderground v.1.15,2013-02-28 09:45:00,
2013-02-28 04:51:00,37.5,26.4,29.64,WNW,282,2.0,3.0,64,0.00,,,0.00,Wunderground v.1.15,2013-02-28 09:51:00,
2013-02-28 04:56:00,37.3,27.3,29.64,SW,229,2.0,4.0,67,0.00,,,0.00,Wunderground v.1.15,2013-02-28 09:56:00,
2013-02-28 05:00:00,36.0,24.6,29.65,WNW,292,2.0,6.0,63,0.00,,---,0.00,VWS V14.01,2013-02-28 10:00:00,
2013-02-28 05:01:00,37.2,26.9,29.65,NW,309,0.0,3.0,66,0.00,,,0.00,Wunderground v.1.15,2013-02-28 10:01:00,
2013-02-28 05:06:00,36.9,26.6,29.65,WSW,250,0.0,3.0,66,0.00,,,0.00,Wunderground v.1.15,2013-02-28 10:06:00,
2013-02-28 05:11:00,36.8,26.9,29.65,WSW,250,0.0,1.0,67,0.00,,,0.00,Wunderground v.1.15,2013-02-28 10:11:00,
2013-02-28 05:16:00,36.6,26.3,29.65,WNW,289,0.0,3.0,66,0.00,,,0.00,Wunderground v.1.15,2013-02-28 10:16:00,
2013-02-28 05:21:00,36.5,26.2,29.65,NW,315,0.0,2.0,66,0.00,,,0.00,Wunderground v.1.15,2013-02-28 10:21:00,
2013-02-28 05:26:00,36.3,25.7,29.65,West,265,0.0,4.0,65,0.00,,,0.00,Wunderground v.1.15,2013-02-28 10:26:00,
2013-02-28 05:30:00,37.6,23.3,29.66,West,270,4.0,12.0,56,0.00,,---,0.00,VWS V14.01,2013-02-28 10:30:00,
2013-02-28 05:31:00,36.2,25.9,29.65,West,269,4.0,4.0,66,0.00,,,0.00,Wunderground v.1.15,2013-02-28 10:31:00,
2013-02-28 05:36:00,36.0,25.4,29.65,WNW,302,1.0,5.0,65,0.00,,,0.00,Wunderground v.1.15,2013-02-28 10:36:00,
2013-02-28 05:41:00,36.0,25.4,29.65,West,272,1.0,3.0,65,0.00,,,0.00,Wunderground v.1.15,2013-02-28 10:41:00,
2013-02-28 05:46:00,35.9,24.9,29.65,WNW,286,2.0,5.0,64,0.00,,,0.00,Wunderground v.1.15,2013-02-28 10:46:00,
2013-02-28 05:51:00,36.0,25.0,29.65,NW,321,2.0,3.0,64,0.00,,,0.00,Wunderground v.1.15,2013-02-28 10:51:00,
2013-02-28 05:57:00,36.0,24.6,29.65,WNW,290,4.0,6.0,63,0.00,,,0.00,Wunderground v.1.15,2013-02-28 10:57:00,
2013-02-28 06:00:00,37.3,23.9,29.66,WNW,292,3.0,10.0,58,0.00,,---,0.00,VWS V14.01,2013-02-28 11:00:00,
2013-02-28 06:02:00,36.0,25.0,29.65,WSW,245,3.0,4.0,64,0.00,,,0.00,Wunderground v.1.15,2013-02-28 11:02:00,
2013-02-28 06:07:00,36.0,25.0,29.65,WNW,286,3.0,5.0,64,0.00,,,0.00,Wunderground v.1.15,2013-02-28 11:07:00,
2013-02-28 06:12:00,36.2,24.4,29.66,West,267,3.0,6.0,62,0.00,,,0.00,Wunderground v.1.15,2013-02-28 11:12:00,
2013-02-28 06:17:00,36.6,24.4,29.66,WNW,284,4.0,9.0,61,0.00,,,0.00,Wunderground v.1.15,2013-02-28 11:17:00,
2013-02-28 06:22:00,37.0,24.0,29.66,West,263,9.0,9.0,59,0.00,,,0.00,Wunderground v.1.15,2013-02-28 11:22:00,
2013-02-28 06:27:00,37.3,23.9,29.65,West,261,12.0,12.0,58,0.00,,,0.00,Wunderground v.1.15,2013-02-28 11:27:00,
2013-02-28 06:30:00,37.0,24.0,29.65,WNW,292,2.0,6.0,59,0.00,,---,0.00,VWS V14.01,2013-02-28 11:30:00,
2013-02-28 06:32:00,37.6,23.7,29.66,West,273,5.0,7.0,57,0.00,,,0.00,Wunderground v.1.15,2013-02-28 11:32:00,
2013-02-28 06:37:00,37.5,23.6,29.66,WSW,248,2.0,9.0,57,0.00,,,0.00,Wunderground v.1.15,2013-02-28 11:37:00,
2013-02-28 06:42:00,37.5,24.1,29.65,WNW,302,4.0,10.0,58,0.00,,,0.00,Wunderground v.1.15,2013-02-28 11:42:00,
2013-02-28 06:47:00,37.5,24.1,29.66,West,262,4.0,10.0,58,0.00,,,0.00,Wunderground v.1.15,2013-02-28 11:47:00,
2013-02-28 06:52:00,37.3,23.9,29.65,WNW,302,1.0,3.0,58,0.00,,,0.00,Wunderground v.1.15,2013-02-28 11:52:00,
2013-02-28 06:57:00,37.3,23.9,29.65,WNW,291,2.0,10.0,58,0.00,,,0.00,Wunderground v.1.15,2013-02-28 11:57:00,
2013-02-28 07:00:00,38.5,25.0,29.66,West,270,2.0,7.0,58,0.00,,---,0.00,VWS V14.01,2013-02-28 12:00:00,
2013-02-28 07:02:00,37.2,23.8,29.66,West,275,2.0,5.0,58,0.00,,,0.00,Wunderground v.1.15,2013-02-28 12:02:00,
2013-02-28 07:07:00,37.3,23.9,29.66,West,274,1.0,5.0,58,0.00,,,0.00,Wunderground v.1.15,2013-02-28 12:07:00,
2013-02-28 07:12:00,37.3,23.9,29.66,WNW,289,2.0,3.0,58,0.00,,,0.00,Wunderground v.1.15,2013-02-28 12:12:00,
2013-02-28 07:17:00,37.2,24.2,29.65,West,279,3.0,3.0,59,0.00,,,0.00,Wunderground v.1.15,2013-02-28 12:17:00,
2013-02-28 07:22:00,37.2,24.2,29.65,WNW,292,2.0,2.0,59,0.00,,,0.00,Wunderground v.1.15,2013-02-28 12:22:00,
2013-02-28 07:27:00,37.2,24.6,29.65,West,274,2.0,3.0,60,0.00,,,0.00,Wunderground v.1.15,2013-02-28 12:27:00,
2013-02-28 07:30:00,39.2,24.4,29.66,WSW,248,4.0,10.0,55,0.00,,---,0.00,VWS V14.01,2013-02-28 12:30:00,
2013-02-28 07:32:00,37.0,24.0,29.65,WNW,294,1.0,2.0,59,0.00,,,0.00,Wunderground v.1.15,2013-02-28 12:32:00,
2013-02-28 07:37:00,37.0,24.0,29.65,WSW,246,1.0,4.0,59,0.00,,,0.00,Wunderground v.1.15,2013-02-28 12:37:00,
2013-02-28 07:42:00,37.2,24.6,29.66,WSW,252,2.0,3.0,60,0.00,,,0.00,Wunderground v.1.15,2013-02-28 12:42:00,
2013-02-28 07:47:00,37.2,25.0,29.66,West,260,3.0,3.0,61,0.00,,,0.00,Wunderground v.1.15,2013-02-28 12:47:00,
2013-02-28 07:52:00,37.6,24.6,29.66,West,266,2.0,6.0,59,0.00,,,0.00,Wunderground v.1.15,2013-02-28 12:52:00,
2013-02-28 07:57:00,38.2,24.7,29.66,WNW,291,3.0,7.0,58,0.00,,,0.00,Wunderground v.1.15,2013-02-28 12:57:00,
2013-02-28 08:00:00,40.3,25.0,29.65,West,270,4.0,12.0,54,0.00,,---,0.00,VWS V14.01,2013-02-28 13:00:00,
2013-02-28 08:02:00,38.6,25.1,29.66,WNW,295,4.0,5.0,58,0.00,,,0.00,Wunderground v.1.15,2013-02-28 13:02:00,
2013-02-28 08:07:00,38.9,26.2,29.66,WSW,248,4.0,6.0,60,0.00,,,0.00,Wunderground v.1.15,2013-02-28 13:07:00,
2013-02-28 08:12:00,39.1,24.3,29.66,West,279,1.0,5.0,55,0.00,,,0.00,Wunderground v.1.15,2013-02-28 13:12:00,
2013-02-28 08:17:00,39.1,23.8,29.66,SW,235,4.0,7.0,54,0.00,,,0.00,Wunderground v.1.15,2013-02-28 13:17:00,
2013-02-28 08:22:00,39.2,24.4,29.66,West,281,3.0,5.0,55,0.00,,,0.00,Wunderground v.1.15,2013-02-28 13:22:00,
2013-02-28 08:27:00,39.2,23.9,29.66,WSW,247,4.0,10.0,54,0.00,,,0.00,Wunderground v.1.15,2013-02-28 13:27:00,
2013-02-28 08:30:00,40.3,25.4,29.65,West,270,4.0,12.0,55,0.00,,---,0.00,VWS V14.01,2013-02-28 13:30:00,
2013-02-28 08:32:00,39.2,23.9,29.66,West,266,4.0,9.0,54,0.00,,,0.00,Wunderground v.1.15,2013-02-28 13:32:00,
2013-02-28 08:38:00,39.5,24.2,29.66,West,281,2.0,9.0,54,0.00,,,0.00,Wunderground v.1.15,2013-02-28 13:38:00,
2013-02-28 08:43:00,39.8,24.5,29.66,NW,313,2.0,7.0,54,0.00,,,0.00,Wunderground v.1.15,2013-02-28 13:43:00,
2013-02-28 08:48:00,39.8,24.5,29.65,WNW,286,4.0,7.0,54,0.00,,,0.00,Wunderground v.1.15,2013-02-28 13:48:00,
2013-02-28 08:53:00,39.6,24.3,29.65,WSW,253,5.0,6.0,54,0.00,,,0.00,Wunderground v.1.15,2013-02-28 13:53:00,
2013-02-28 08:58:00,40.1,25.6,29.65,West,280,2.0,6.0,56,0.00,,,0.00,Wunderground v.1.15,2013-02-28 13:58:00,
2013-02-28 09:00:00,40.6,25.7,29.65,West,270,5.0,14.0,55,0.00,,---,0.00,VWS V14.01,2013-02-28 14:00:00,
2013-02-28 09:03:00,40.5,25.6,29.65,WSW,244,6.0,9.0,55,0.00,,,0.00,Wunderground v.1.15,2013-02-28 14:03:00,
2013-02-28 09:08:00,40.6,24.8,29.65,NNW,327,2.0,11.0,53,0.00,,,0.00,Wunderground v.1.15,2013-02-28 14:08:00,
2013-02-28 09:13:00,40.6,25.7,29.65,NW,314,3.0,5.0,55,0.00,,,0.00,Wunderground v.1.15,2013-02-28 14:13:00,
2013-02-28 09:18:00,40.5,24.7,29.65,SSW,202,6.0,12.0,53,0.00,,,0.00,Wunderground v.1.15,2013-02-28 14:18:00,
2013-02-28 09:23:00,40.2,24.4,29.66,WNW,303,3.0,7.0,53,0.00,,,0.00,Wunderground v.1.15,2013-02-28 14:23:00,
2013-02-28 09:28:00,40.2,24.9,29.65,SW,226,2.0,9.0,54,0.00,,,0.00,Wunderground v.1.15,2013-02-28 14:28:00,
2013-02-28 09:30:00,40.5,26.5,29.65,WNW,292,3.0,10.0,57,0.00,,---,0.00,VWS V14.01,2013-02-28 14:30:00,
2013-02-28 09:33:00,40.5,26.0,29.65,SSW,201,6.0,8.0,56,0.00,,,0.00,Wunderground v.1.15,2013-02-28 14:33:00,
2013-02-28 09:38:00,40.9,26.4,29.65,WNW,294,4.0,10.0,56,0.00,,,0.00,Wunderground v.1.15,2013-02-28 14:38:00,
2013-02-28 09:43:00,40.9,24.6,29.65,SSW,207,4.0,10.0,52,0.00,,,0.00,Wunderground v.1.15,2013-02-28 14:43:00,
2013-02-28 09:48:00,40.8,25.4,29.64,WNW,288,9.0,10.0,54,0.00,,,0.00,Wunderground v.1.15,2013-02-28 14:48:00,
2013-02-28 09:53:00,40.8,25.4,29.65,WSW,246,3.0,11.0,54,0.00,,,0.00,Wunderground v.1.15,2013-02-28 14:53:00,
2013-02-28 09:58:00,40.6,25.7,29.65,WSW,249,3.0,11.0,55,0.00,,,0.00,Wunderground v.1.15,2013-02-28 14:58:00,
2013-02-28 10:00:00,40.1,26.1,29.66,West,270,3.0,10.0,57,0.00,,---,0.00,VWS V14.01,2013-02-28 15:00:00,
2013-02-28 10:03:00,40.6,25.7,29.65,West,269,6.0,8.0,55,0.00,,,0.00,Wunderground v.1.15,2013-02-28 15:03:00,
2013-02-28 10:08:00,40.6,27.0,29.65,WSW,240,1.0,9.0,58,0.00,,,0.00,Wunderground v.1.15,2013-02-28 15:08:00,
2013-02-28 10:13:00,40.6,27.4,29.65,WSW,249,3.0,9.0,59,0.00,,,0.00,Wunderground v.1.15,2013-02-28 15:13:00,
2013-02-28 10:18:00,40.6,25.7,29.65,West,279,3.0,9.0,55,0.00,,,0.00,Wunderground v.1.15,2013-02-28 15:18:00,
2013-02-28 10:23:00,40.5,25.6,29.65,West,272,3.0,7.0,55,0.00,,,0.00,Wunderground v.1.15,2013-02-28 15:23:00,
2013-02-28 10:28:00,40.5,26.9,29.65,WNW,296,3.0,7.0,58,0.00,,,0.00,Wunderground v.1.15,2013-02-28 15:28:00,
2013-02-28 10:30:00,39.8,27.5,29.66,West,270,5.0,12.0,61,0.00,,---,0.00,VWS V14.01,2013-02-28 15:30:00,
2013-02-28 10:33:00,40.5,26.0,29.65,WNW,285,5.0,7.0,56,0.00,,,0.00,Wunderground v.1.15,2013-02-28 15:33:00,
2013-02-28 10:38:00,40.2,25.7,29.65,SW,234,3.0,7.0,56,0.00,,,0.00,Wunderground v.1.15,2013-02-28 15:38:00,
2013-02-28 10:43:00,40.2,26.2,29.65,SW,227,6.0,9.0,57,0.00,,,0.00,Wunderground v.1.15,2013-02-28 15:43:00,
2013-02-28 10:48:00,40.1,26.5,29.66,WNW,290,4.0,9.0,58,0.00,,,0.00,Wunderground v.1.15,2013-02-28 15:48:00,
2013-02-28 10:53:00,40.1,26.9,29.66,West,272,1.0,4.0,59,0.00,,,0.00,Wunderground v.1.15,2013-02-28 15:53:00,
2013-02-28 10:58:00,40.1,26.5,29.66,WSW,246,4.0,5.0,58,0.00,,,0.00,Wunderground v.1.15,2013-02-28 15:58:00,
2013-02-28 11:00:00,40.5,25.2,29.66,West,270,7.0,17.0,54,0.00,,---,0.00,VWS V14.01,2013-02-28 16:00:00,
2013-02-28 11:04:00,39.9,26.7,29.66,West,267,6.0,12.0,59,0.00,,,0.00,Wunderground v.1.15,2013-02-28 16:04:00,
2013-02-28 11:09:00,39.6,27.6,29.66,WNW,302,3.0,12.0,62,0.00,,,0.00,Wunderground v.1.15,2013-02-28 16:09:00,
2013-02-28 11:14:00,39.3,28.9,29.66,WSW,244,6.0,11.0,66,0.00,,,0.00,Wunderground v.1.15,2013-02-28 16:14:00,
2013-02-28 11:19:00,39.2,29.9,29.66,WNW,302,4.0,11.0,69,0.00,,,0.00,Wunderground v.1.15,2013-02-28 16:19:00,
2013-02-28 11:24:00,39.5,28.7,29.66,WSW,252,3.0,11.0,65,0.00,,,0.00,Wunderground v.1.15,2013-02-28 16:24:00,
2013-02-28 11:29:00,39.8,27.4,29.66,West,274,6.0,11.0,61,0.00,,,0.00,Wunderground v.1.15,2013-02-28 16:29:00,
2013-02-28 11:30:00,40.5,25.2,29.65,West,270,6.0,17.0,54,0.00,,---,0.00,VWS V14.01,2013-02-28 16:30:00,
2013-02-28 11:34:00,39.9,27.1,29.66,WSW,249,13.0,13.0,60,0.00,,,0.00,Wunderground v.1.15,2013-02-28 16:34:00,
2013-02-28 11:39:00,40.1,26.9,29.66,WNW,301,12.0,17.0,59,0.00,,,0.00,Wunderground v.1.15,2013-02-28 16:39:00,
2013-02-28 11:44:00,40.3,27.1,29.66,NW,325,9.0,13.0,59,0.00,,,0.00,Wunderground v.1.15,2013-02-28 16:44:00,
2013-02-28 11:49:00,40.3,25.8,29.66,West,281,5.0,13.0,56,0.00,,,0.00,Wunderground v.1.15,2013-02-28 16:49:00,
2013-02-28 11:54:00,40.5,27.7,29.66,WSW,238,9.0,13.0,60,0.00,,,0.00,Wunderground v.1.15,2013-02-28 16:54:00,
2013-02-28 11:59:00,40.6,25.2,29.66,SW,232,10.0,17.0,54,0.00,,,0.00,Wunderground v.1.15,2013-02-28 16:59:00,
2013-02-28 12:00:00,41.3,24.1,29.64,West,270,5.0,16.0,50,0.00,,---,0.00,VWS V14.01,2013-02-28 17:00:00,
2013-02-28 12:04:00,40.5,25.6,29.66,WSW,250,4.0,16.0,55,0.00,,,0.00,Wunderground v.1.15,2013-02-28 17:04:00,
2013-02-28 12:09:00,40.5,25.6,29.66,WNW,284,12.0,16.0,55,0.00,,,0.00,Wunderground v.1.15,2013-02-28 17:09:00,
2013-02-28 12:14:00,40.5,25.6,29.66,West,273,10.0,14.0,55,0.00,,,0.00,Wunderground v.1.15,2013-02-28 17:14:00,
2013-02-28 12:19:00,40.2,24.9,29.66,WSW,257,4.0,14.0,54,0.00,,,0.00,Wunderground v.1.15,2013-02-28 17:19:00,
2013-02-28 12:24:00,40.3,25.8,29.66,West,260,3.0,11.0,56,0.00,,,0.00,Wunderground v.1.15,2013-02-28 17:24:00,
2013-02-28 12:29:00,40.5,25.6,29.65,West,271,8.0,11.0,55,0.00,,,0.00,Wunderground v.1.15,2013-02-28 17:29:00,
2013-02-28 12:30:00,41.6,24.4,29.64,West,270,6.0,16.0,50,0.00,,---,0.00,VWS V14.01,2013-02-28 17:30:00,
2013-02-28 12:34:00,40.6,25.7,29.65,WNW,288,7.0,10.0,55,0.00,,,0.00,Wunderground v.1.15,2013-02-28 17:34:00,
2013-02-28 12:39:00,40.6,26.1,29.65,WSW,242,5.0,11.0,56,0.00,,,0.00,Wunderground v.1.15,2013-02-28 17:39:00,
2013-02-28 12:44:00,40.9,26.4,29.65,West,262,9.0,10.0,56,0.00,,,0.00,Wunderground v.1.15,2013-02-28 17:44:00,
2013-02-28 12:49:00,41.2,25.3,29.65,West,260,3.0,12.0,53,0.00,,,0.00,Wunderground v.1.15,2013-02-28 17:49:00,
2013-02-28 12:54:00,41.5,24.2,29.64,NW,305,7.0,16.0,50,0.00,,,0.00,Wunderground v.1.15,2013-02-28 17:54:00,
2013-02-28 12:59:00,41.3,24.5,29.64,West,276,9.0,16.0,51,0.00,,,0.00,Wunderground v.1.15,2013-02-28 17:59:00,
2013-02-28 13:00:00,41.9,25.1,29.63,West,270,6.0,18.0,51,0.00,,---,0.00,VWS V14.01,2013-02-28 18:00:00,
2013-02-28 13:04:00,41.3,24.5,29.64,NNW,332,2.0,9.0,51,0.00,,,0.00,Wunderground v.1.15,2013-02-28 18:04:00,
2013-02-28 13:09:00,41.5,25.2,29.64,WSW,252,5.0,13.0,52,0.00,,,0.00,Wunderground v.1.15,2013-02-28 18:09:00,
2013-02-28 13:14:00,41.8,25.0,29.64,WNW,286,10.0,11.0,51,0.00,,,0.00,Wunderground v.1.15,2013-02-28 18:14:00,
2013-02-28 13:19:00,41.8,23.5,29.64,WSW,244,6.0,14.0,48,0.00,,,0.00,Wunderground v.1.15,2013-02-28 18:19:00,
2013-02-28 13:24:00,41.6,24.8,29.64,WSW,252,6.0,14.0,51,0.00,,,0.00,Wunderground v.1.15,2013-02-28 18:24:00,
2013-02-28 13:29:00,41.6,24.8,29.64,SW,223,7.0,14.0,51,0.00,,,0.00,Wunderground v.1.15,2013-02-28 18:29:00,
2013-02-28 13:30:00,42.5,25.2,29.64,West,270,6.0,16.0,50,0.00,,---,0.00,VWS V14.01,2013-02-28 18:30:00,
2013-02-28 13:34:00,41.8,25.0,29.64,West,263,10.0,10.0,51,0.00,,,0.00,Wunderground v.1.15,2013-02-28 18:34:00,
2013-02-28 13:39:00,41.9,24.1,29.64,NW,304,2.0,13.0,49,0.00,,,0.00,Wunderground v.1.15,2013-02-28 18:39:00,
2013-02-28 13:44:00,41.9,25.1,29.64,SW,223,5.0,10.0,51,0.00,,,0.00,Wunderground v.1.15,2013-02-28 18:44:00,
2013-02-28 13:49:00,41.9,23.6,29.64,West,263,6.0,14.0,48,0.00,,,0.00,Wunderground v.1.15,2013-02-28 18:49:00,
2013-02-28 13:54:00,41.8,23.5,29.64,WNW,302,4.0,14.0,48,0.00,,,0.00,Wunderground v.1.15,2013-02-28 18:54:00,
2013-02-28 13:59:00,41.9,25.5,29.63,WSW,255,6.0,18.0,52,0.00,,,0.00,Wunderground v.1.15,2013-02-28 18:59:00,
2013-02-28 14:00:00,42.2,24.4,29.64,West,270,7.0,24.0,49,0.00,,---,0.00,VWS V14.01,2013-02-28 19:00:00,
2013-02-28 14:04:00,42.1,24.8,29.64,WSW,238,3.0,14.0,50,0.00,,,0.00,Wunderground v.1.15,2013-02-28 19:04:00,
2013-02-28 14:09:00,42.3,25.0,29.64,West,267,7.0,14.0,50,0.00,,,0.00,Wunderground v.1.15,2013-02-28 19:09:00,
2013-02-28 14:14:00,42.5,24.7,29.64,West,261,3.0,9.0,49,0.00,,,0.00,Wunderground v.1.15,2013-02-28 19:14:00,
2013-02-28 14:19:00,42.3,25.0,29.64,WNW,302,7.0,12.0,50,0.00,,,0.00,Wunderground v.1.15,2013-02-28 19:19:00,
2013-02-28 14:24:00,42.6,25.7,29.64,WSW,240,4.0,7.0,51,0.00,,,0.00,Wunderground v.1.15,2013-02-28 19:24:00,
2013-02-28 14:29:00,42.6,25.7,29.64,WNW,302,8.0,13.0,51,0.00,,,0.00,Wunderground v.1.15,2013-02-28 19:29:00,
2013-02-28 14:30:00,41.6,25.8,29.64,WNW,292,7.0,18.0,53,0.00,,---,0.00,VWS V14.01,2013-02-28 19:30:00,
2013-02-28 14:34:00,42.2,24.4,29.64,West,281,4.0,18.0,49,0.00,,,0.00,Wunderground v.1.15,2013-02-28 19:34:00,
2013-02-28 14:39:00,41.9,24.1,29.64,West,271,3.0,18.0,49,0.00,,,0.00,Wunderground v.1.15,2013-02-28 19:39:00,
2013-02-28 14:44:00,41.9,24.6,29.64,SW,216,7.0,12.0,50,0.00,,,0.00,Wunderground v.1.15,2013-02-28 19:44:00,
2013-02-28 14:49:00,42.1,24.8,29.64,WNW,301,9.0,16.0,50,0.00,,,0.00,Wunderground v.1.15,2013-02-28 19:49:00,
2013-02-28 14:55:00,42.1,25.3,29.64,West,279,3.0,13.0,51,0.00,,,0.00,Wunderground v.1.15,2013-02-28 19:55:00,
2013-02-28 15:00:00,42.2,24.4,29.64,West,259,16.0,24.0,49,0.00,,,0.00,Wunderground v.1.15,2013-02-28 20:00:00,
2013-02-28 15:05:00,42.2,25.3,29.64,WSW,239,5.0,17.0,51,0.00,,,0.00,Wunderground v.1.15,2013-02-28 20:05:00,
2013-02-28 15:10:00,42.2,24.9,29.64,WNW,284,9.0,9.0,50,0.00,,,0.00,Wunderground v.1.15,2013-02-28 20:10:00,
2013-02-28 15:15:00,41.9,25.1,29.64,NNW,333,8.0,14.0,51,0.00,,,0.00,Wunderground v.1.15,2013-02-28 20:15:00,
2013-02-28 15:20:00,41.6,24.8,29.65,WNW,284,11.0,15.0,51,0.00,,,0.00,Wunderground v.1.15,2013-02-28 20:20:00,
2013-02-28 15:25:00,41.6,25.3,29.64,West,271,8.0,16.0,52,0.00,,,0.00,Wunderground v.1.15,2013-02-28 20:25:00,
2013-02-28 15:30:00,41.6,25.3,29.65,West,278,11.0,14.0,52,0.00,,,0.00,Wunderground v.1.15,2013-02-28 20:30:00,
2013-02-28 15:35:00,41.6,25.3,29.64,WSW,258,11.0,14.0,52,0.00,,,0.00,Wunderground v.1.15,2013-02-28 20:35:00,
2013-02-28 15:40:00,41.5,25.6,29.64,NW,311,4.0,7.0,53,0.00,,,0.00,Wunderground v.1.15,2013-02-28 20:40:00,
2013-02-28 15:45:00,41.5,25.6,29.64,WSW,256,3.0,11.0,53,0.00,,,0.00,Wunderground v.1.15,2013-02-28 20:45:00,
2013-02-28 15:50:00,41.6,25.3,29.64,West,261,3.0,5.0,52,0.00,,,0.00,Wunderground v.1.15,2013-02-28 20:50:00,
2013-02-28 15:55:00,41.8,27.7,29.64,West,270,4.0,9.0,57,0.00,,,0.00,Wunderground v.1.15,2013-02-28 20:55:00,
2013-02-28 16:00:00,41.6,25.3,29.64,NW,310,6.0,7.0,52,0.00,,,0.00,Wunderground v.1.15,2013-02-28 21:00:00,
2013-02-28 16:06:00,41.6,25.7,29.64,West,269,7.0,14.0,53,0.00,,,0.00,Wunderground v.1.15,2013-02-28 21:06:00,
2013-02-28 16:11:00,41.3,25.4,29.64,WNW,288,8.0,12.0,53,0.00,,,0.00,Wunderground v.1.15,2013-02-28 21:11:00,
2013-02-28 16:16:00,41.3,25.9,29.64,WSW,247,6.0,12.0,54,0.00,,,0.00,Wunderground v.1.15,2013-02-28 21:16:00,
2013-02-28 16:21:00,41.3,25.9,29.64,WSW,239,6.0,14.0,54,0.00,,,0.00,Wunderground v.1.15,2013-02-28 21:21:00,
2013-02-28 16:26:00,41.1,26.1,29.64,NW,317,5.0,18.0,55,0.00,,,0.00,Wunderground v.1.15,2013-02-28 21:26:00,
2013-02-28 16:30:00,39.8,26.7,29.67,West,270,5.0,14.0,59,0.00,,---,0.00,VWS V14.01,2013-02-28 21:30:00,
2013-02-28 16:31:00,40.9,26.0,29.64,West,261,5.0,8.0,55,0.00,,,0.00,Wunderground v.1.15,2013-02-28 21:31:00,
2013-02-28 16:36:00,40.8,26.3,29.65,WNW,285,5.0,12.0,56,0.00,,,0.00,Wunderground v.1.15,2013-02-28 21:36:00,
2013-02-28 16:41:00,40.9,26.4,29.65,SW,233,3.0,5.0,56,0.00,,,0.00,Wunderground v.1.15,2013-02-28 21:41:00,
2013-02-28 16:46:00,40.8,26.3,29.65,NW,309,2.0,11.0,56,0.00,,,0.00,Wunderground v.1.15,2013-02-28 21:46:00,
2013-02-28 16:51:00,40.8,26.7,29.65,NNW,328,6.0,7.0,57,0.00,,,0.00,Wunderground v.1.15,2013-02-28 21:51:00,
2013-02-28 16:56:00,40.8,26.3,29.65,West,266,5.0,11.0,56,0.00,,,0.00,Wunderground v.1.15,2013-02-28 21:56:00,
2013-02-28 17:00:00,39.6,25.6,29.67,West,270,3.0,11.0,57,0.00,,---,0.00,VWS V14.01,2013-02-28 22:00:00,
2013-02-28 17:01:00,40.6,26.5,29.65,NW,317,5.0,6.0,57,0.00,,,0.00,Wunderground v.1.15,2013-02-28 22:01:00,
2013-02-28 17:06:00,40.5,26.4,29.66,West,274,3.0,12.0,57,0.00,,,0.00,Wunderground v.1.15,2013-02-28 22:06:00,
2013-02-28 17:12:00,40.3,26.7,29.66,SW,219,7.0,9.0,58,0.00,,,0.00,Wunderground v.1.15,2013-02-28 22:12:00,
2013-02-28 17:17:00,40.1,26.5,29.66,West,264,6.0,10.0,58,0.00,,,0.00,Wunderground v.1.15,2013-02-28 22:17:00,
2013-02-28 17:22:00,39.9,26.3,29.67,West,270,3.0,7.0,58,0.00,,,0.00,Wunderground v.1.15,2013-02-28 22:22:00,
2013-02-28 17:27:00,39.8,26.6,29.67,West,271,3.0,10.0,59,0.00,,,0.00,Wunderground v.1.15,2013-02-28 22:27:00,
2013-02-28 17:30:00,39.9,25.1,29.69,West,270,6.0,16.0,55,0.00,,---,0.00,VWS V14.01,2013-02-28 22:30:00,
2013-02-28 17:32:00,39.8,26.6,29.67,West,277,4.0,6.0,59,0.00,,,0.00,Wunderground v.1.15,2013-02-28 22:32:00,
2013-02-28 17:37:00,39.6,26.4,29.67,West,270,3.0,7.0,59,0.00,,,0.00,Wunderground v.1.15,2013-02-28 22:37:00,
2013-02-28 17:42:00,39.6,26.4,29.67,WNW,292,6.0,6.0,59,0.00,,,0.00,Wunderground v.1.15,2013-02-28 22:42:00,
2013-02-28 17:47:00,39.6,26.4,29.67,West,280,2.0,6.0,59,0.00,,,0.00,Wunderground v.1.15,2013-02-28 22:47:00,
2013-02-28 17:52:00,39.6,26.4,29.67,WSW,248,4.0,5.0,59,0.00,,,0.00,Wunderground v.1.15,2013-02-28 22:52:00,
2013-02-28 17:57:00,39.8,26.2,29.67,West,277,3.0,6.0,58,0.00,,,0.00,Wunderground v.1.15,2013-02-28 22:57:00,
2013-02-28 18:00:00,39.8,25.4,29.70,West,270,5.0,13.0,56,0.00,,---,0.00,VWS V14.01,2013-02-28 23:00:00,
2013-02-28 18:02:00,39.8,25.8,29.68,WSW,243,4.0,7.0,57,0.00,,,0.00,Wunderground v.1.15,2013-02-28 23:02:00,
2013-02-28 18:07:00,39.9,25.5,29.68,West,259,7.0,10.0,56,0.00,,,0.00,Wunderground v.1.15,2013-02-28 23:07:00,
2013-02-28 18:12:00,39.9,25.5,29.68,West,273,5.0,7.0,56,0.00,,,0.00,Wunderground v.1.15,2013-02-28 23:12:00,
2013-02-28 18:17:00,40.1,25.2,29.69,WNW,294,4.0,15.0,55,0.00,,,0.00,Wunderground v.1.15,2013-02-28 23:17:00,
2013-02-28 18:22:00,40.1,25.2,29.69,WSW,254,10.0,10.0,55,0.00,,,0.00,Wunderground v.1.15,2013-02-28 23:22:00,
2013-02-28 18:27:00,39.9,25.0,29.69,WNW,295,7.0,11.0,55,0.00,,,0.00,Wunderground v.1.15,2013-02-28 23:27:00,
2013-02-28 18:30:00,39.5,26.0,29.71,WNW,292,5.0,13.0,58,0.00,,---,0.00,VWS V14.01,2013-02-28 23:30:00,
2013-02-28 18:32:00,39.9,24.6,29.69,WNW,295,5.0,12.0,54,0.00,,,0.00,Wunderground v.1.15,2013-02-28 23:32:00,
2013-02-28 18:37:00,39.9,25.0,29.69,SW,234,4.0,12.0,55,0.00,,,0.00,Wunderground v.1.15,2013-02-28 23:37:00,
2013-02-28 18:42:00,39.9,25.0,29.70,WNW,302,3.0,9.0,55,0.00,,,0.00,Wunderground v.1.15,2013-02-28 23:42:00,
2013-02-28 18:47:00,39.9,25.5,29.70,WNW,290,4.0,10.0,56,0.00,,,0.00,Wunderground v.1.15,2013-02-28 23:47:00,
2013-02-28 18:52:00,39.8,25.4,29.70,WNW,296,1.0,6.0,56,0.00,,,0.00,Wunderground v.1.15,2013-02-28 23:52:00,
2013-02-28 18:57:00,39.8,25.4,29.70,West,267,11.0,13.0,56,0.00,,,0.00,Wunderground v.1.15,2013-02-28 23:57:00,
2013-02-28 19:00:00,39.3,26.6,29.71,West,270,5.0,12.0,60,0.00,,---,0.00,VWS V14.01,2013-03-01 00:00:00,
2013-02-28 19:02:00,39.8,25.4,29.70,West,277,3.0,12.0,56,0.00,,,0.00,Wunderground v.1.15,2013-03-01 00:02:00,
2013-02-28 19:07:00,39.8,25.8,29.70,NW,305,3.0,12.0,57,0.00,,,0.00,Wunderground v.1.15,2013-03-01 00:07:00,
2013-02-28 19:12:00,39.6,25.6,29.70,WNW,299,6.0,11.0,57,0.00,,,0.00,Wunderground v.1.15,2013-03-01 00:12:00,
2013-02-28 19:17:00,39.6,25.6,29.70,West,271,2.0,12.0,57,0.00,,,0.00,Wunderground v.1.15,2013-03-01 00:17:00,
2013-02-28 19:22:00,39.5,25.9,29.70,WNW,288,6.0,10.0,58,0.00,,,0.00,Wunderground v.1.15,2013-03-01 00:22:00,
2013-02-28 19:27:00,39.5,25.9,29.71,SW,229,6.0,10.0,58,0.00,,,0.00,Wunderground v.1.15,2013-03-01 00:27:00,
2013-02-28 19:30:00,39.3,27.4,29.72,West,270,5.0,12.0,62,0.00,,---,0.00,VWS V14.01,2013-03-01 00:30:00,
2013-02-28 19:32:00,39.5,26.3,29.71,WNW,285,5.0,9.0,59,0.00,,,0.00,Wunderground v.1.15,2013-03-01 00:32:00,
2013-02-28 19:37:00,39.5,25.9,29.71,NW,315,3.0,10.0,58,0.00,,,0.00,Wunderground v.1.15,2013-03-01 00:37:00,
2013-02-28 19:42:00,39.5,26.3,29.71,WSW,248,6.0,11.0,59,0.00,,,0.00,Wunderground v.1.15,2013-03-01 00:42:00,
2013-02-28 19:47:00,39.3,26.2,29.71,WSW,251,4.0,11.0,59,0.00,,,0.00,Wunderground v.1.15,2013-03-01 00:47:00,
2013-02-28 19:53:00,39.3,26.6,29.71,WNW,296,2.0,7.0,60,0.00,,,0.00,Wunderground v.1.15,2013-03-01 00:53:00,
2013-02-28 19:57:00,39.3,26.6,29.71,West,265,5.0,10.0,60,0.00,,,0.00,Wunderground v.1.15,2013-03-01 00:57:00,
2013-02-28 20:00:00,39.2,27.7,29.73,WNW,292,4.0,12.0,63,0.00,,---,0.00,VWS V14.01,2013-03-01 01:00:00,
2013-02-28 20:02:00,39.3,26.6,29.71,West,263,4.0,5.0,60,0.00,,,0.00,Wunderground v.1.15,2013-03-01 01:02:00,
2013-02-28 20:08:00,39.2,26.9,29.71,West,259,4.0,7.0,61,0.00,,,0.00,Wunderground v.1.15,2013-03-01 01:08:00,
2013-02-28 20:13:00,39.2,26.5,29.71,West,260,6.0,12.0,60,0.00,,,0.00,Wunderground v.1.15,2013-03-01 01:13:00,
2013-02-28 20:18:00,39.3,27.0,29.71,West,279,5.0,12.0,61,0.00,,,0.00,Wunderground v.1.15,2013-03-01 01:18:00,
2013-02-28 20:23:00,39.3,27.0,29.72,WSW,248,4.0,7.0,61,0.00,,,0.00,Wunderground v.1.15,2013-03-01 01:23:00,
2013-02-28 20:28:00,39.3,27.0,29.72,WNW,298,3.0,9.0,61,0.00,,,0.00,Wunderground v.1.15,2013-03-01 01:28:00,
2013-02-28 20:30:00,39.5,27.6,29.73,WNW,292,5.0,13.0,62,0.00,,---,0.00,VWS V14.01,2013-03-01 01:30:00,
2013-02-28 20:33:00,39.2,27.3,29.72,WSW,254,4.0,12.0,62,0.00,,,0.00,Wunderground v.1.15,2013-03-01 01:33:00,
2013-02-28 20:38:00,39.2,27.3,29.72,NW,318,2.0,12.0,62,0.00,,,0.00,Wunderground v.1.15,2013-03-01 01:38:00,
2013-02-28 20:43:00,39.2,27.3,29.72,NW,305,3.0,5.0,62,0.00,,,0.00,Wunderground v.1.15,2013-03-01 01:43:00,
2013-02-28 20:48:00,39.2,27.3,29.72,WNW,288,3.0,6.0,62,0.00,,,0.00,Wunderground v.1.15,2013-03-01 01:48:00,
2013-02-28 20:53:00,39.2,27.3,29.73,NW,317,2.0,10.0,62,0.00,,,0.00,Wunderground v.1.15,2013-03-01 01:53:00,
2013-02-28 20:58:00,39.2,27.7,29.73,NNW,336,1.0,12.0,63,0.00,,,0.00,Wunderground v.1.15,2013-03-01 01:58:00,
2013-02-28 21:00:00,39.5,28.4,29.73,NW,315,5.0,19.0,64,0.00,,---,0.00,VWS V14.01,2013-03-01 02:00:00,
2013-02-28 21:03:00,39.3,27.4,29.72,WNW,288,3.0,10.0,62,0.00,,,0.00,Wunderground v.1.15,2013-03-01 02:03:00,
2013-02-28 21:08:00,39.3,27.7,29.72,West,281,10.0,10.0,63,0.00,,,0.00,Wunderground v.1.15,2013-03-01 02:08:00,
2013-02-28 21:13:00,39.5,27.5,29.73,WSW,255,9.0,9.0,62,0.00,,,0.00,Wunderground v.1.15,2013-03-01 02:13:00,
2013-02-28 21:18:00,39.5,27.5,29.72,WNW,292,3.0,12.0,62,0.00,,,0.00,Wunderground v.1.15,2013-03-01 02:18:00,
2013-02-28 21:23:00,39.5,27.5,29.72,WNW,302,4.0,7.0,62,0.00,,,0.00,Wunderground v.1.15,2013-03-01 02:23:00,
2013-02-28 21:28:00,39.5,27.5,29.73,WNW,298,8.0,10.0,62,0.00,,,0.00,Wunderground v.1.15,2013-03-01 02:28:00,
2013-02-28 21:30:00,38.9,28.1,29.72,NW,315,5.0,16.0,65,0.00,,---,0.00,VWS V14.01,2013-03-01 02:30:00,
2013-02-28 21:33:00,39.5,27.9,29.73,North,5,1.0,5.0,63,0.00,,,0.00,Wunderground v.1.15,2013-03-01 02:33:00,
2013-02-28 21:38:00,39.6,28.0,29.73,NNW,343,4.0,15.0,63,0.00,,,0.00,Wunderground v.1.15,2013-03-01 02:38:00,
2013-02-28 21:43:00,39.5,27.9,29.73,WNW,286,5.0,7.0,63,0.00,,,0.00,Wunderground v.1.15,2013-03-01 02:43:00,
2013-02-28 21:48:00,39.5,27.9,29.73,NW,304,6.0,12.0,63,0.00,,,0.00,Wunderground v.1.15,2013-03-01 02:48:00,
2013-02-28 21:53:00,39.5,27.9,29.73,NW,323,5.0,13.0,63,0.00,,,0.00,Wunderground v.1.15,2013-03-01 02:53:00,
2013-02-28 21:58:00,39.5,27.9,29.73,WNW,286,3.0,13.0,63,0.00,,,0.00,Wunderground v.1.15,2013-03-01 02:58:00,
2013-02-28 22:00:00,38.3,28.0,29.73,NW,315,3.0,10.0,66,0.00,,---,0.00,VWS V14.01,2013-03-01 03:00:00,
2013-02-28 22:03:00,39.5,28.3,29.72,NW,320,2.0,6.0,64,0.00,,,0.00,Wunderground v.1.15,2013-03-01 03:03:00,
2013-02-28 22:08:00,39.3,28.1,29.73,WNW,295,5.0,9.0,64,0.00,,,0.00,Wunderground v.1.15,2013-03-01 03:08:00,
2013-02-28 22:13:00,39.2,28.0,29.72,NW,325,6.0,10.0,64,0.00,,,0.00,Wunderground v.1.15,2013-03-01 03:13:00,
2013-02-28 22:19:00,39.1,27.9,29.72,NW,304,3.0,10.0,64,0.00,,,0.00,Wunderground v.1.15,2013-03-01 03:19:00,
2013-02-28 22:24:00,39.1,28.3,29.73,NW,320,5.0,15.0,65,0.00,,,0.00,Wunderground v.1.15,2013-03-01 03:24:00,
2013-02-28 22:29:00,39.1,28.3,29.73,NW,313,3.0,15.0,65,0.00,,,0.00,Wunderground v.1.15,2013-03-01 03:29:00,
2013-02-28 22:30:00,38.3,28.0,29.73,WNW,292,2.0,9.0,66,0.00,,---,0.00,VWS V14.01,2013-03-01 03:30:00,
2013-02-28 22:34:00,38.9,28.1,29.72,NW,317,4.0,8.0,65,0.00,,,0.00,Wunderground v.1.15,2013-03-01 03:34:00,
2013-02-28 22:39:00,38.8,28.4,29.72,NNW,329,2.0,8.0,66,0.00,,,0.00,Wunderground v.1.15,2013-03-01 03:39:00,
2013-02-28 22:44:00,38.8,28.4,29.72,NW,311,3.0,5.0,66,0.00,,,0.00,Wunderground v.1.15,2013-03-01 03:44:00,
2013-02-28 22:49:00,38.6,28.2,29.72,NW,313,1.0,5.0,66,0.00,,,0.00,Wunderground v.1.15,2013-03-01 03:49:00,
2013-02-28 22:54:00,38.5,27.7,29.73,NNW,331,4.0,8.0,65,0.00,,,0.00,Wunderground v.1.15,2013-03-01 03:54:00,
2013-02-28 22:59:00,38.3,27.9,29.73,West,265,4.0,8.0,66,0.00,,,0.00,Wunderground v.1.15,2013-03-01 03:59:00,
2013-02-28 23:00:00,38.5,28.1,29.73,WNW,292,3.0,11.0,66,0.00,,---,0.00,VWS V14.01,2013-03-01 04:00:00,
2013-02-28 23:04:00,38.3,27.9,29.73,WNW,283,2.0,6.0,66,0.00,,,0.00,Wunderground v.1.15,2013-03-01 04:04:00,
2013-02-28 23:09:00,38.3,27.9,29.73,NW,309,3.0,6.0,66,0.00,,,0.00,Wunderground v.1.15,2013-03-01 04:09:00,
2013-02-28 23:14:00,38.3,27.9,29.73,NW,313,3.0,8.0,66,0.00,,,0.00,Wunderground v.1.15,2013-03-01 04:14:00,
2013-02-28 23:19:00,38.3,27.9,29.73,North,355,1.0,9.0,66,0.00,,,0.00,Wunderground v.1.15,2013-03-01 04:19:00,
2013-02-28 23:24:00,38.3,27.9,29.73,WNW,294,1.0,4.0,66,0.00,,,0.00,Wunderground v.1.15,2013-03-01 04:24:00,
2013-02-28 23:29:00,38.3,27.9,29.73,SW,231,3.0,5.0,66,0.00,,,0.00,Wunderground v.1.15,2013-03-01 04:29:00,
2013-02-28 23:30:00,38.3,27.2,29.74,NW,315,3.0,10.0,64,0.00,,---,0.00,VWS V14.01,2013-03-01 04:30:00,
2013-02-28 23:34:00,38.3,27.9,29.73,West,263,5.0,6.0,66,0.00,,,0.00,Wunderground v.1.15,2013-03-01 04:34:00,
2013-02-28 23:39:00,38.3,27.9,29.73,NW,310,2.0,6.0,66,0.00,,,0.00,Wunderground v.1.15,2013-03-01 04:39:00,
2013-02-28 23:45:00,38.3,27.9,29.73,WNW,298,3.0,6.0,66,0.00,,,0.00,Wunderground v.1.15,2013-03-01 04:45:00,
2013-02-28 23:50:00,38.5,27.7,29.74,NW,316,4.0,7.0,65,0.00,,,0.00,Wunderground v.1.15,2013-03-01 04:50:00,
2013-02-28 23:55:00,38.5,27.7,29.73,NNW,327,2.0,7.0,65,0.00,,,0.00,Wunderground v.1.15,2013-03-01 04:55:00,